createdAt,value
2022-12-20T00:01:48.580Z,-1.10
2022-12-20T00:04:16.232Z,-1.10
2022-12-20T00:06:43.436Z,-1.10
2022-12-20T00:09:12.289Z,-1.10
2022-12-20T00:11:41.435Z,-1.10
2022-12-20T00:14:10.250Z,-1.10
2022-12-20T00:16:38.286Z,-1.10
2022-12-20T00:19:08.027Z,-1.10
2022-12-20T00:21:36.184Z,-1.10
2022-12-20T00:24:05.366Z,-1.10
2022-12-20T00:26:34.590Z,-1.10
2022-12-20T00:29:02.215Z,-1.20
2022-12-20T00:31:31.779Z,-1.10
2022-12-20T00:34:00.460Z,-1.20
2022-12-20T00:36:30.503Z,-1.10
2022-12-20T00:38:59.198Z,-1.10
2022-12-20T00:41:32.423Z,-1.10
2022-12-20T00:44:00.778Z,-1.10
2022-12-20T00:46:28.504Z,-1.10
2022-12-20T00:48:56.930Z,-1.10
2022-12-20T00:51:28.037Z,-1.00
2022-12-20T00:53:56.268Z,-1.10
2022-12-20T00:56:23.615Z,-1.00
2022-12-20T00:58:59.447Z,-1.00
2022-12-20T01:01:30.875Z,-1.00
2022-12-20T01:03:59.383Z,-1.00
2022-12-20T01:06:27.600Z,-1.00
2022-12-20T01:08:56.281Z,-0.90
2022-12-20T01:11:26.030Z,-0.90
2022-12-20T01:13:56.232Z,-1.00
2022-12-20T01:16:28.297Z,-1.00
2022-12-20T01:18:56.047Z,-1.00
2022-12-20T01:21:25.609Z,-1.00
2022-12-20T01:23:53.502Z,-1.00
2022-12-20T01:26:23.623Z,-1.00
2022-12-20T01:28:54.634Z,-1.00
2022-12-20T01:31:22.799Z,-1.00
2022-12-20T01:33:51.438Z,-1.00
2022-12-20T01:36:27.104Z,-0.90
2022-12-20T01:39:03.163Z,-0.80
2022-12-20T01:41:32.198Z,-0.80
2022-12-20T01:44:06.460Z,-0.70
2022-12-20T01:46:36.400Z,-0.60
2022-12-20T01:49:29.543Z,-0.50
2022-12-20T01:52:19.122Z,-0.50
2022-12-20T01:54:56.792Z,-0.40
2022-12-20T01:57:58.608Z,-0.40
2022-12-20T02:00:26.862Z,-0.30
2022-12-20T02:02:55.811Z,-0.30
2022-12-20T02:05:24.034Z,-0.30
2022-12-20T02:07:54.429Z,-0.30
2022-12-20T02:10:27.767Z,-0.20
2022-12-20T02:13:04.631Z,-0.20
2022-12-20T02:15:48.983Z,-0.20
2022-12-20T02:18:22.397Z,-0.20
2022-12-20T02:21:12.918Z,-0.20
2022-12-20T02:24:13.674Z,-0.10
2022-12-20T02:27:05.975Z,-0.10
2022-12-20T02:29:45.539Z,0.00
2022-12-20T02:32:20.203Z,-0.10
2022-12-20T02:34:47.698Z,0.00
2022-12-20T02:37:15.253Z,0.00
2022-12-20T02:39:44.335Z,0.00
2022-12-20T02:42:14.990Z,0.00
2022-12-20T02:45:18.155Z,0.00
2022-12-20T02:47:54.628Z,0.00
2022-12-20T02:50:32.875Z,0.00
2022-12-20T02:53:01.230Z,0.10
2022-12-20T02:55:43.401Z,0.10
2022-12-20T02:58:29.523Z,0.20
2022-12-20T03:01:04.590Z,0.20
2022-12-20T03:03:34.774Z,0.20
2022-12-20T03:06:02.253Z,0.30
2022-12-20T03:08:31.219Z,0.30
2022-12-20T03:10:58.881Z,0.40
2022-12-20T03:13:26.930Z,0.40
2022-12-20T03:16:02.542Z,0.40
2022-12-20T03:18:30.038Z,0.40
2022-12-20T03:20:57.408Z,0.50
2022-12-20T03:23:24.905Z,0.50
2022-12-20T03:25:52.175Z,0.60
2022-12-20T03:28:30.974Z,0.60
2022-12-20T03:30:58.281Z,0.60
2022-12-20T03:33:26.182Z,0.60
2022-12-20T03:35:54.807Z,0.70
2022-12-20T03:38:22.875Z,0.60
2022-12-20T03:40:50.055Z,0.70
2022-12-20T03:43:21.603Z,0.70
2022-12-20T03:45:48.952Z,0.70
2022-12-20T03:48:16.539Z,0.70
2022-12-20T03:50:43.917Z,0.70
2022-12-20T03:53:11.504Z,0.70
2022-12-20T03:55:38.786Z,0.70
2022-12-20T03:58:06.515Z,0.70
2022-12-20T04:00:37.930Z,0.70
2022-12-20T04:03:24.138Z,0.70
2022-12-20T04:05:52.040Z,0.70
2022-12-20T04:08:19.638Z,0.70
2022-12-20T04:11:08.080Z,0.80
2022-12-20T04:13:37.578Z,0.80
2022-12-20T04:16:05.460Z,0.80
2022-12-20T04:18:34.247Z,0.80
2022-12-20T04:21:02.935Z,0.80
2022-12-20T04:23:32.081Z,0.90
2022-12-20T04:25:59.614Z,0.90
2022-12-20T04:28:30.609Z,0.90
2022-12-20T04:30:58.433Z,0.90
2022-12-20T04:33:29.538Z,0.90
2022-12-20T04:35:57.350Z,0.90
2022-12-20T04:38:26.301Z,0.90
2022-12-20T04:40:55.650Z,0.90
2022-12-20T04:43:25.741Z,0.90
2022-12-20T04:45:57.033Z,1.00
2022-12-20T04:51:15.977Z,1.00
2022-12-20T04:53:50.599Z,1.00
2022-12-20T04:56:28.916Z,1.00
2022-12-20T04:59:03.476Z,0.90
2022-12-20T05:01:31.554Z,1.00
2022-12-20T05:03:59.179Z,0.90
2022-12-20T05:06:31.774Z,1.00
2022-12-20T05:08:59.494Z,1.00
2022-12-20T05:11:26.941Z,1.00
2022-12-20T05:13:56.516Z,1.00
2022-12-20T05:16:23.932Z,1.00
2022-12-20T05:18:53.716Z,1.00
2022-12-20T05:21:40.131Z,1.00
2022-12-20T05:24:28.352Z,1.00
2022-12-20T05:27:21.409Z,1.00
2022-12-20T05:29:49.560Z,1.00
2022-12-20T05:32:16.843Z,1.10
2022-12-20T05:34:45.128Z,1.10
2022-12-20T05:37:12.561Z,1.10
2022-12-20T05:39:42.009Z,1.10
2022-12-20T05:42:15.843Z,1.10
2022-12-20T05:44:43.516Z,1.10
2022-12-20T05:47:10.774Z,1.10
2022-12-20T05:49:39.437Z,1.10
2022-12-20T05:52:10.890Z,1.20
2022-12-20T05:54:41.141Z,1.10
2022-12-20T05:57:12.227Z,1.10
2022-12-20T05:59:42.146Z,1.20
2022-12-20T06:02:18.053Z,1.20
2022-12-20T06:04:48.525Z,1.20
2022-12-20T06:07:25.620Z,1.20
2022-12-20T06:09:57.491Z,1.30
2022-12-20T06:12:35.199Z,1.30
2022-12-20T06:15:02.831Z,1.30
2022-12-20T06:17:30.560Z,1.30
2022-12-20T06:19:58.584Z,1.30
2022-12-20T06:22:26.302Z,1.40
2022-12-20T06:24:57.140Z,1.40
2022-12-20T06:27:28.194Z,1.40
2022-12-20T06:30:05.957Z,1.40
2022-12-20T06:32:44.885Z,1.40
2022-12-20T06:35:14.438Z,1.40
2022-12-20T06:37:42.659Z,1.50
2022-12-20T06:40:13.040Z,1.50
2022-12-20T06:42:40.879Z,1.50
2022-12-20T06:45:09.027Z,1.50
2022-12-20T06:47:37.353Z,1.50
2022-12-20T06:50:07.884Z,1.50
2022-12-20T06:52:35.782Z,1.60
2022-12-20T06:55:05.206Z,1.60
2022-12-20T06:57:36.160Z,1.60
2022-12-20T07:00:05.331Z,1.60
2022-12-20T07:02:32.732Z,1.60
2022-12-20T07:05:00.377Z,1.60
2022-12-20T07:07:27.675Z,1.60
2022-12-20T07:09:55.283Z,1.60
2022-12-20T07:12:23.168Z,1.60
2022-12-20T07:14:50.709Z,1.60
2022-12-20T07:17:18.011Z,1.60
2022-12-20T07:19:50.549Z,1.60
2022-12-20T07:22:18.352Z,1.60
2022-12-20T07:24:46.150Z,1.60
2022-12-20T07:27:13.988Z,1.70
2022-12-20T07:29:42.209Z,1.60
2022-12-20T07:32:10.232Z,1.70
2022-12-20T07:34:37.967Z,1.70
2022-12-20T07:37:05.092Z,1.70
2022-12-20T07:39:32.614Z,1.70
2022-12-20T07:41:59.903Z,1.70
2022-12-20T07:44:28.053Z,1.70
2022-12-20T07:46:55.193Z,1.70
2022-12-20T07:49:23.480Z,1.70
2022-12-20T07:51:55.845Z,1.70
2022-12-20T07:54:28.437Z,1.80
2022-12-20T07:57:00.627Z,1.80
2022-12-20T07:59:40.033Z,1.80
2022-12-20T08:02:14.082Z,1.80
2022-12-20T08:04:42.227Z,1.80
2022-12-20T08:07:10.350Z,1.80
2022-12-20T08:09:41.206Z,1.80
2022-12-20T08:12:10.633Z,1.80
2022-12-20T08:14:38.428Z,1.80
2022-12-20T08:17:05.619Z,1.80
2022-12-20T08:19:33.269Z,1.80
2022-12-20T08:22:00.472Z,1.90
2022-12-20T08:24:27.953Z,1.90
2022-12-20T08:26:55.174Z,1.90
2022-12-20T08:29:23.132Z,1.90
2022-12-20T08:31:50.880Z,1.90
2022-12-20T08:34:18.965Z,2.00
2022-12-20T08:36:46.196Z,2.00
2022-12-20T08:39:13.756Z,2.00
2022-12-20T08:41:40.967Z,2.00
2022-12-20T08:44:09.582Z,2.00
2022-12-20T08:46:37.394Z,2.00
2022-12-20T08:49:05.942Z,2.00
2022-12-20T08:51:33.429Z,2.10
2022-12-20T08:54:02.755Z,2.10
2022-12-20T08:56:29.950Z,2.10
2022-12-20T08:58:57.706Z,2.20
2022-12-20T09:01:27.041Z,2.20
2022-12-20T09:03:54.777Z,2.30
2022-12-20T09:06:23.139Z,2.30
2022-12-20T09:08:50.832Z,2.30
2022-12-20T09:11:21.848Z,2.30
2022-12-20T09:13:51.916Z,2.40
2022-12-20T09:16:21.941Z,2.40
2022-12-20T09:19:04.276Z,2.40
2022-12-20T09:21:33.145Z,2.40
2022-12-20T09:24:00.627Z,2.40
2022-12-20T09:26:27.911Z,2.40
2022-12-20T09:28:55.741Z,2.40
2022-12-20T09:31:26.030Z,2.50
2022-12-20T09:33:58.091Z,2.50
2022-12-20T09:36:27.513Z,2.60
2022-12-20T09:38:55.844Z,2.60
2022-12-20T09:41:39.539Z,2.60
2022-12-20T09:44:31.665Z,2.70
2022-12-20T09:47:16.309Z,2.70
2022-12-20T09:49:48.758Z,2.60
2022-12-20T09:52:57.934Z,2.60
2022-12-20T09:55:47.276Z,2.70
2022-12-20T09:58:23.483Z,2.70
2022-12-20T10:00:54.397Z,2.70
2022-12-20T10:03:33.134Z,2.70
2022-12-20T10:06:05.365Z,2.70
2022-12-20T10:08:55.140Z,2.70
2022-12-20T10:11:50.410Z,2.60
2022-12-20T10:15:08.539Z,2.60
2022-12-20T10:17:40.269Z,2.60
2022-12-20T10:20:33.944Z,2.60
2022-12-20T10:23:05.293Z,2.60
2022-12-20T10:25:34.400Z,2.70
2022-12-20T10:28:09.749Z,2.70
2022-12-20T10:30:37.454Z,2.80
2022-12-20T10:33:05.097Z,3.10
2022-12-20T10:35:40.518Z,3.10
2022-12-20T10:38:13.908Z,3.30
2022-12-20T10:43:44.230Z,3.30
2022-12-20T10:46:13.409Z,3.30
2022-12-20T10:48:43.456Z,3.30
2022-12-20T10:51:15.310Z,3.30
2022-12-20T10:53:52.895Z,3.30
2022-12-20T10:56:24.555Z,3.30
2022-12-20T10:58:55.174Z,3.30
2022-12-20T11:01:25.368Z,3.20
2022-12-20T11:03:52.935Z,3.20
2022-12-20T11:06:22.304Z,3.20
2022-12-20T11:08:53.862Z,3.20
2022-12-20T11:11:25.005Z,3.20
2022-12-20T11:13:52.852Z,3.20
2022-12-20T11:16:29.198Z,3.20
2022-12-20T11:19:06.149Z,3.20
2022-12-20T11:21:38.374Z,3.20
2022-12-20T11:24:25.966Z,3.30
2022-12-20T11:27:21.443Z,3.30
2022-12-20T11:30:10.160Z,3.40
2022-12-20T11:32:46.435Z,3.50
2022-12-20T11:35:30.386Z,3.50
2022-12-20T11:38:07.302Z,3.60
2022-12-20T11:40:44.874Z,3.60
2022-12-20T11:43:28.764Z,3.70
2022-12-20T11:46:23.256Z,3.60
2022-12-20T11:49:05.474Z,3.70
2022-12-20T11:51:47.040Z,3.60
2022-12-20T11:54:31.328Z,3.60
2022-12-20T11:57:05.536Z,3.60
2022-12-20T11:59:58.564Z,3.60
2022-12-20T12:02:43.785Z,3.60
2022-12-20T12:05:20.493Z,3.50
2022-12-20T12:07:50.827Z,3.50
2022-12-20T12:10:25.718Z,3.50
2022-12-20T12:13:07.342Z,3.50
2022-12-20T12:15:55.338Z,3.50
2022-12-20T12:18:27.791Z,3.40
2022-12-20T12:21:11.147Z,3.40
2022-12-20T12:23:44.585Z,3.50
2022-12-20T12:26:25.638Z,3.50
2022-12-20T12:28:58.325Z,3.50
2022-12-20T12:31:37.497Z,3.50
2022-12-20T12:34:04.939Z,3.50
2022-12-20T12:36:50.655Z,3.40
2022-12-20T12:39:40.008Z,3.40
2022-12-20T12:43:02.436Z,3.40
2022-12-20T12:45:52.473Z,3.40
2022-12-20T12:48:19.615Z,3.50
2022-12-20T12:50:54.163Z,3.50
2022-12-20T12:53:43.268Z,3.50
2022-12-20T12:56:43.093Z,3.50
2022-12-20T12:59:45.519Z,3.50
2022-12-20T13:02:20.811Z,3.50
2022-12-20T13:05:01.025Z,3.50
2022-12-20T13:07:35.339Z,3.50
2022-12-20T13:10:18.372Z,3.50
2022-12-20T13:12:57.463Z,3.50
2022-12-20T13:15:24.578Z,3.50
2022-12-20T13:17:53.189Z,3.50
2022-12-20T13:20:32.658Z,3.50
2022-12-20T13:23:08.940Z,3.50
2022-12-20T13:25:42.659Z,3.50
2022-12-20T13:28:18.790Z,3.50
2022-12-20T13:30:48.076Z,3.50
2022-12-20T13:33:25.020Z,3.60
2022-12-20T13:36:17.741Z,3.60
2022-12-20T13:39:25.071Z,3.60
2022-12-20T13:42:14.257Z,3.70
2022-12-20T13:44:47.270Z,3.60
2022-12-20T13:47:30.176Z,3.60
2022-12-20T13:50:02.236Z,3.60
2022-12-20T13:52:33.358Z,3.60
2022-12-20T13:55:15.875Z,3.60
2022-12-20T13:57:46.188Z,3.60
2022-12-20T14:00:28.276Z,3.50
2022-12-20T14:02:56.631Z,3.60
2022-12-20T14:05:33.151Z,3.50
2022-12-20T14:08:07.588Z,3.50
2022-12-20T14:10:35.903Z,3.50
2022-12-20T14:13:05.067Z,3.40
2022-12-20T14:15:35.338Z,3.40
2022-12-20T14:18:16.306Z,3.40
2022-12-20T14:20:44.608Z,3.40
2022-12-20T14:23:16.477Z,3.40
2022-12-20T14:26:01.682Z,3.40
2022-12-20T14:28:35.943Z,3.40
2022-12-20T14:31:04.306Z,3.40
2022-12-20T14:33:41.129Z,3.40
2022-12-20T14:36:19.151Z,3.40
2022-12-20T14:38:52.107Z,3.40
2022-12-20T14:41:40.022Z,3.40
2022-12-20T14:44:07.137Z,3.40
2022-12-20T14:46:37.052Z,3.40
2022-12-20T14:49:23.123Z,3.40
2022-12-20T14:51:51.991Z,3.30
2022-12-20T14:57:37.256Z,3.40
2022-12-20T15:00:10.351Z,3.40
2022-12-20T15:02:46.524Z,3.40
2022-12-20T15:05:35.674Z,3.40
2022-12-20T15:08:23.218Z,3.30
2022-12-20T15:11:00.003Z,3.40
2022-12-20T15:13:29.323Z,3.40
2022-12-20T15:15:59.882Z,3.40
2022-12-20T15:18:27.553Z,3.40
2022-12-20T15:21:22.190Z,3.40
2022-12-20T15:23:55.174Z,3.30
2022-12-20T15:26:25.377Z,3.30
2022-12-20T15:28:53.289Z,3.30
2022-12-20T15:31:30.809Z,3.30
2022-12-20T15:34:03.710Z,3.30
2022-12-20T15:36:31.221Z,3.30
2022-12-20T15:39:15.356Z,3.30
2022-12-20T15:41:49.064Z,3.30
2022-12-20T15:44:22.729Z,3.20
2022-12-20T15:46:51.011Z,3.20
2022-12-20T15:49:21.421Z,3.10
2022-12-20T15:51:50.319Z,3.10
2022-12-20T15:54:38.423Z,3.10
2022-12-20T15:57:10.285Z,3.10
2022-12-20T16:02:27.883Z,3.00
2022-12-20T16:04:55.960Z,2.90
2022-12-20T16:07:23.640Z,2.90
2022-12-20T16:09:51.205Z,2.90
2022-12-20T16:12:34.985Z,2.90
2022-12-20T16:15:02.631Z,2.80
2022-12-20T16:17:29.886Z,2.80
2022-12-20T16:19:57.406Z,2.80
2022-12-20T16:22:24.971Z,2.80
2022-12-20T16:24:52.568Z,2.80
2022-12-20T16:27:20.584Z,2.80
2022-12-20T16:29:48.157Z,2.80
2022-12-20T16:32:18.122Z,2.80
2022-12-20T16:34:46.484Z,2.80
2022-12-20T16:37:13.935Z,2.80
2022-12-20T16:39:42.136Z,2.80
2022-12-20T16:42:18.222Z,2.90
2022-12-20T16:44:47.763Z,2.80
2022-12-20T16:47:15.248Z,2.80
2022-12-20T16:49:51.693Z,2.90
2022-12-20T16:52:22.158Z,2.80
2022-12-20T16:54:50.552Z,2.80
2022-12-20T16:57:17.738Z,2.90
2022-12-20T16:59:45.193Z,2.90
2022-12-20T17:02:38.654Z,2.90
2022-12-20T17:05:07.280Z,2.90
2022-12-20T17:07:41.118Z,2.80
2022-12-20T17:10:10.273Z,2.90
2022-12-20T17:12:37.461Z,2.90
2022-12-20T17:15:05.512Z,2.90
2022-12-20T17:17:32.752Z,2.90
2022-12-20T17:20:00.414Z,2.90
2022-12-20T17:25:25.995Z,2.90
2022-12-20T17:27:53.973Z,3.00
2022-12-20T17:30:23.096Z,2.90
2022-12-20T17:32:50.453Z,2.90
2022-12-20T17:35:24.000Z,2.90
2022-12-20T17:37:54.110Z,3.00
2022-12-20T17:40:22.513Z,2.90
2022-12-20T17:42:49.679Z,2.90
2022-12-20T17:45:36.429Z,2.90
2022-12-20T17:48:05.136Z,2.90
2022-12-20T17:50:32.617Z,2.90
2022-12-20T17:52:59.856Z,2.90
2022-12-20T17:55:28.694Z,2.90
2022-12-20T17:57:56.522Z,2.90
2022-12-20T18:00:36.578Z,2.90
2022-12-20T18:03:07.244Z,2.90
2022-12-20T18:05:35.052Z,2.90
2022-12-20T18:08:02.451Z,2.90
2022-12-20T18:10:30.021Z,2.90
2022-12-20T18:12:57.234Z,2.90
2022-12-20T18:15:27.632Z,2.90
2022-12-20T18:17:54.723Z,2.90
2022-12-20T18:20:22.094Z,2.90
2022-12-20T18:22:49.278Z,2.90
2022-12-20T18:25:18.348Z,2.80
2022-12-20T18:27:45.519Z,2.90
2022-12-20T18:30:13.504Z,2.90
2022-12-20T18:32:41.290Z,2.90
2022-12-20T18:35:10.544Z,2.80
2022-12-20T18:37:37.814Z,2.80
2022-12-20T18:40:06.023Z,2.90
2022-12-20T18:42:33.215Z,2.80
2022-12-20T18:45:00.722Z,2.80
2022-12-20T18:47:28.957Z,2.80
2022-12-20T18:49:56.422Z,2.80
2022-12-20T18:52:23.852Z,2.80
2022-12-20T18:54:51.453Z,2.80
2022-12-20T18:57:18.604Z,2.80
2022-12-20T18:59:46.086Z,2.80
2022-12-20T19:02:15.042Z,2.70
2022-12-20T19:04:42.880Z,2.80
2022-12-20T19:07:11.255Z,2.80
2022-12-20T19:09:38.853Z,2.80
2022-12-20T19:12:06.097Z,2.80
2022-12-20T19:14:33.498Z,2.80
2022-12-20T19:17:00.749Z,2.80
2022-12-20T19:19:28.227Z,2.80
2022-12-20T19:21:55.377Z,2.80
2022-12-20T19:24:23.120Z,2.90
2022-12-20T19:26:50.318Z,2.90
2022-12-20T19:29:17.749Z,3.00
2022-12-20T19:31:45.013Z,2.90
2022-12-20T19:34:13.234Z,3.00
2022-12-20T19:36:43.429Z,2.90
2022-12-20T19:39:17.708Z,3.00
2022-12-20T19:41:54.851Z,2.90
2022-12-20T19:44:27.648Z,3.00
2022-12-20T19:46:55.037Z,3.00
2022-12-20T19:49:22.654Z,3.00
2022-12-20T19:51:49.927Z,3.00
2022-12-20T19:54:17.344Z,3.00
2022-12-20T19:56:44.520Z,3.00
2022-12-20T19:59:13.986Z,3.00
2022-12-20T20:01:42.451Z,3.00
2022-12-20T20:04:10.168Z,3.10
2022-12-20T20:06:37.466Z,3.10
2022-12-20T20:09:05.003Z,3.10
2022-12-20T20:11:32.162Z,3.10
2022-12-20T20:14:02.234Z,3.10
2022-12-20T20:16:29.543Z,3.10
2022-12-20T20:18:57.282Z,3.10
2022-12-20T20:21:24.446Z,3.10
2022-12-20T20:23:53.178Z,3.10
2022-12-20T20:26:23.654Z,3.10
2022-12-20T20:28:51.449Z,3.10
2022-12-20T20:31:20.483Z,3.20
2022-12-20T20:33:48.372Z,3.10
2022-12-20T20:36:21.168Z,3.10
2022-12-20T20:38:49.937Z,3.20
2022-12-20T20:41:17.625Z,3.20
2022-12-20T20:43:45.162Z,3.20
2022-12-20T20:46:14.993Z,3.20
2022-12-20T20:48:43.818Z,3.20
2022-12-20T20:51:11.564Z,3.20
2022-12-20T20:53:39.571Z,3.20
2022-12-20T20:56:08.266Z,3.20
2022-12-20T20:58:36.367Z,3.20
2022-12-20T21:01:05.451Z,3.10
2022-12-20T21:03:33.317Z,3.10
2022-12-20T21:06:37.111Z,3.10
2022-12-20T21:08:48.158Z,3.10
2022-12-20T21:11:15.631Z,3.10
2022-12-20T21:13:43.462Z,3.10
2022-12-20T21:16:14.107Z,3.10
2022-12-20T21:18:41.781Z,3.10
2022-12-20T21:21:10.921Z,3.10
2022-12-20T21:23:43.201Z,3.10
2022-12-20T21:26:10.524Z,3.10
2022-12-20T21:28:38.261Z,3.10
2022-12-20T21:31:09.218Z,3.10
2022-12-20T21:33:37.416Z,3.10
2022-12-20T21:36:06.792Z,3.10
2022-12-20T21:38:34.993Z,3.10
2022-12-20T21:41:11.539Z,3.10
2022-12-20T21:43:39.142Z,3.10
2022-12-20T21:46:11.253Z,3.10
2022-12-20T21:48:40.271Z,3.10
2022-12-20T21:51:11.385Z,3.10
2022-12-20T21:53:49.824Z,3.10
2022-12-20T21:56:18.509Z,3.10
2022-12-20T21:58:46.784Z,3.10
2022-12-20T22:01:17.045Z,3.10
2022-12-20T22:03:45.468Z,3.10
2022-12-20T22:06:12.768Z,3.10
2022-12-20T22:08:40.386Z,3.00
2022-12-20T22:11:12.920Z,3.00
2022-12-20T22:13:42.244Z,3.00
2022-12-20T22:16:15.556Z,3.00
2022-12-20T22:18:44.735Z,3.00
2022-12-20T22:21:14.197Z,3.00
2022-12-20T22:23:41.871Z,3.00
2022-12-20T22:26:12.791Z,3.00
2022-12-20T22:28:51.773Z,3.00
2022-12-20T22:31:19.976Z,3.00
2022-12-20T22:33:47.742Z,3.00
2022-12-20T22:36:16.354Z,3.00
2022-12-20T22:38:44.785Z,3.10
2022-12-20T22:41:18.332Z,3.10
2022-12-20T22:43:46.938Z,3.00
2022-12-20T22:49:01.650Z,3.00
2022-12-20T22:51:31.102Z,3.10
2022-12-20T22:53:59.558Z,3.10
2022-12-20T22:56:27.119Z,3.00
2022-12-20T22:58:54.520Z,3.10
2022-12-20T23:01:21.907Z,3.00
2022-12-20T23:03:49.650Z,3.10
2022-12-20T23:06:19.468Z,3.10
2022-12-20T23:08:47.894Z,3.10
2022-12-20T23:11:37.997Z,3.10
2022-12-20T23:14:29.164Z,3.10
2022-12-20T23:16:57.688Z,3.10
2022-12-20T23:19:25.243Z,3.10
2022-12-20T23:22:10.974Z,3.20
2022-12-20T23:24:38.389Z,3.20
2022-12-20T23:27:05.541Z,3.20
2022-12-20T23:29:33.080Z,3.20
2022-12-20T23:32:00.291Z,3.20
2022-12-20T23:34:28.245Z,3.20
2022-12-20T23:36:55.394Z,3.20
2022-12-20T23:39:22.753Z,3.20
2022-12-20T23:41:49.856Z,3.30
2022-12-20T23:44:17.248Z,3.20
2022-12-20T23:46:44.583Z,3.30
2022-12-20T23:49:12.012Z,3.30
2022-12-20T23:51:39.521Z,3.30
2022-12-20T23:54:06.935Z,3.30
2022-12-20T23:56:33.979Z,3.30
2022-12-20T23:59:02.422Z,3.30
